Аэропорт
Петропавловск (UHPP)

 UHPP / PKC
ЗЦ Хабаровск
Петропавловск-Камчатский (UHPP)
Петропавловск-Камчатский (UHPP)
 53.16790, 158.45399  / 131 ft

 UHPP 230030Z 12005MPS 9999 OVC032CB 02/M02 Q1019 R16R/CLRD70 NOSIG RMK MT OBSC QFE761/1015

UHPP_AIP_0217
показать схемы
Название сценария Тип сценария Flight Simulator 9 Flight Simulator X Prepar3D v2 Prepar3D v3 Prepar3D v4 xPlane
uhpp-scenery-fs9-0806 бесплатный


2019 © VATRUS division (Privacy Policy)